Terminal Aerodrome Forecast
Issued by NWS Jacksonville, FL

Home | Current Version | Previous Version | Text Only | Print | Product List | Glossary On
Versions: 1 2 3 4 5 6 7 8 9 10 11 12 13 14 15 16 17 18 19 20 21 22 23 24 25 26 27 28 29 30 31 32
825
FTUS42 KJAX 250547
TAFJAX
TAF
KJAX 250547Z 2506/2606 00000KT P6SM SKC
     FM251400 27007KT P6SM FEW040 SCT250
     FM260000 30004KT P6SM BKN200=

USA.gov is the U.S. government's official web portal to all federal, state and local government web resources and services.